sensor_id;sensor_type;location;lat;lon;timestamp;temperature;humidity
20337;DHT22;10326;53.660;10.200;2024-02-15T00:03:11;14.20;98.70
20337;DHT22;10326;53.660;10.200;2024-02-15T00:06:03;14.20;98.60
20337;DHT22;10326;53.660;10.200;2024-02-15T00:12:53;14.20;98.70
20337;DHT22;10326;53.660;10.200;2024-02-15T00:27:59;14.30;98.90
20337;DHT22;10326;53.660;10.200;2024-02-15T00:39:58;14.20;98.80
20337;DHT22;10326;53.660;10.200;2024-02-15T00:42:55;14.30;99.00
20337;DHT22;10326;53.660;10.200;2024-02-15T00:46:04;14.30;98.90
20337;DHT22;10326;53.660;10.200;2024-02-15T00:49:02;14.30;99.00
20337;DHT22;10326;53.660;10.200;2024-02-15T00:51:55;14.30;99.00
20337;DHT22;10326;53.660;10.200;2024-02-15T00:55:32;14.30;98.90
20337;DHT22;10326;53.660;10.200;2024-02-15T00:58:02;14.30;98.90
20337;DHT22;10326;53.660;10.200;2024-02-15T01:03:49;14.30;98.90
20337;DHT22;10326;53.660;10.200;2024-02-15T01:05:16;14.30;99.10
20337;DHT22;10326;53.660;10.200;2024-02-15T01:09:11;14.30;99.00
20337;DHT22;10326;53.660;10.200;2024-02-15T01:11:44;14.30;99.10
20337;DHT22;10326;53.660;10.200;2024-02-15T01:15:16;14.30;99.00
20337;DHT22;10326;53.660;10.200;2024-02-15T01:21:43;14.30;99.10
20337;DHT22;10326;53.660;10.200;2024-02-15T01:24:20;14.30;99.00
20337;DHT22;10326;53.660;10.200;2024-02-15T01:26:47;14.30;99.10
20337;DHT22;10326;53.660;10.200;2024-02-15T01:29:15;14.30;99.00
20337;DHT22;10326;53.660;10.200;2024-02-15T01:31:45;14.30;99.10
20337;DHT22;10326;53.660;10.200;2024-02-15T01:34:14;14.30;99.10
20337;DHT22;10326;53.660;10.200;2024-02-15T01:36:42;14.30;99.10
20337;DHT22;10326;53.660;10.200;2024-02-15T01:41:07;14.30;99.10
20337;DHT22;10326;53.660;10.200;2024-02-15T01:43:09;14.30;99.20
20337;DHT22;10326;53.660;10.200;2024-02-15T01:45:45;14.30;99.10
20337;DHT22;10326;53.660;10.200;2024-02-15T01:52:02;14.30;99.10
20337;DHT22;10326;53.660;10.200;2024-02-15T01:59:17;14.30;99.20
20337;DHT22;10326;53.660;10.200;2024-02-15T02:06:41;14.40;99.20
20337;DHT22;10326;53.660;10.200;2024-02-15T02:09:13;14.30;99.10
20337;DHT22;10326;53.660;10.200;2024-02-15T02:12:18;14.30;99.00
20337;DHT22;10326;53.660;10.200;2024-02-15T02:14:47;14.30;99.00
20337;DHT22;10326;53.660;10.200;2024-02-15T02:17:17;14.30;99.10
20337;DHT22;10326;53.660;10.200;2024-02-15T02:24:24;14.30;99.30
20337;DHT22;10326;53.660;10.200;2024-02-15T02:34:20;14.40;99.00
20337;DHT22;10326;53.660;10.200;2024-02-15T02:36:56;14.40;99.10
20337;DHT22;10326;53.660;10.200;2024-02-15T02:49:29;14.40;99.10
20337;DHT22;10326;53.660;10.200;2024-02-15T02:53:02;14.40;99.10
20337;DHT22;10326;53.660;10.200;2024-02-15T02:55:37;14.40;99.20
20337;DHT22;10326;53.660;10.200;2024-02-15T02:58:34;14.40;99.10
20337;DHT22;10326;53.660;10.200;2024-02-15T03:50:34;14.50;99.20
20337;DHT22;10326;53.660;10.200;2024-02-15T04:31:57;14.50;99.40
20337;DHT22;10326;53.660;10.200;2024-02-15T04:39:19;14.50;99.40
20337;DHT22;10326;53.660;10.200;2024-02-15T04:53:50;14.50;99.30
20337;DHT22;10326;53.660;10.200;2024-02-15T05:07:36;14.60;99.40
20337;DHT22;10326;53.660;10.200;2024-02-15T05:43:38;14.60;99.40
20337;DHT22;10326;53.660;10.200;2024-02-15T05:49:54;14.60;99.30
20337;DHT22;10326;53.660;10.200;2024-02-15T05:51:35;14.60;99.40
20337;DHT22;10326;53.660;10.200;2024-02-15T12:03:23;15.80;99.50
20337;DHT22;10326;53.660;10.200;2024-02-15T12:06:08;15.80;99.50
20337;DHT22;10326;53.660;10.200;2024-02-15T12:08:53;15.80;99.50
20337;DHT22;10326;53.660;10.200;2024-02-15T12:11:39;15.80;99.50
20337;DHT22;10326;53.660;10.200;2024-02-15T12:14:24;15.90;99.50
20337;DHT22;10326;53.660;10.200;2024-02-15T12:17:09;15.90;99.50
20337;DHT22;10326;53.660;10.200;2024-02-15T12:19:57;15.90;99.50
20337;DHT22;10326;53.660;10.200;2024-02-15T12:22:30;15.90;99.50
20337;DHT22;10326;53.660;10.200;2024-02-15T12:25:01;15.90;99.60
20337;DHT22;10326;53.660;10.200;2024-02-15T12:27:31;15.90;99.50
20337;DHT22;10326;53.660;10.200;2024-02-15T12:30:00;15.90;99.50
20337;DHT22;10326;53.660;10.200;2024-02-15T12:32:27;15.90;99.50
20337;DHT22;10326;53.660;10.200;2024-02-15T12:35:12;15.90;99.50
20337;DHT22;10326;53.660;10.200;2024-02-15T12:37:42;15.90;99.50
20337;DHT22;10326;53.660;10.200;2024-02-15T12:40:12;15.90;99.50
20337;DHT22;10326;53.660;10.200;2024-02-15T12:42:42;16.00;99.50
20337;DHT22;10326;53.660;10.200;2024-02-15T12:45:16;16.00;99.50
20337;DHT22;10326;53.660;10.200;2024-02-15T12:47:48;16.00;99.50
20337;DHT22;10326;53.660;10.200;2024-02-15T12:50:18;16.00;99.40
20337;DHT22;10326;53.660;10.200;2024-02-15T12:52:47;16.00;99.40
20337;DHT22;10326;53.660;10.200;2024-02-15T12:55:16;16.00;99.40
20337;DHT22;10326;53.660;10.200;2024-02-15T12:57:47;16.00;99.70
20337;DHT22;10326;53.660;10.200;2024-02-15T13:00:17;16.00;99.40
20337;DHT22;10326;53.660;10.200;2024-02-15T13:02:47;15.90;99.30
20337;DHT22;10326;53.660;10.200;2024-02-15T13:05:15;15.90;99.40
20337;DHT22;10326;53.660;10.200;2024-02-15T13:07:45;15.90;99.40
20337;DHT22;10326;53.660;10.200;2024-02-15T13:10:13;15.90;99.40
20337;DHT22;10326;53.660;10.200;2024-02-15T13:12:42;16.00;99.40
20337;DHT22;10326;53.660;10.200;2024-02-15T13:15:11;16.00;99.40
20337;DHT22;10326;53.660;10.200;2024-02-15T13:17:42;15.90;99.40
20337;DHT22;10326;53.660;10.200;2024-02-15T13:20:11;16.00;99.40
20337;DHT22;10326;53.660;10.200;2024-02-15T13:22:40;16.00;99.30
20337;DHT22;10326;53.660;10.200;2024-02-15T13:25:10;15.90;99.30
20337;DHT22;10326;53.660;10.200;2024-02-15T13:27:37;15.90;99.30
20337;DHT22;10326;53.660;10.200;2024-02-15T13:30:05;15.90;99.30
20337;DHT22;10326;53.660;10.200;2024-02-15T13:32:35;15.90;99.30
20337;DHT22;10326;53.660;10.200;2024-02-15T13:35:05;15.90;99.30
20337;DHT22;10326;53.660;10.200;2024-02-15T13:37:40;15.90;99.30
20337;DHT22;10326;53.660;10.200;2024-02-15T13:40:11;15.90;99.30
20337;DHT22;10326;53.660;10.200;2024-02-15T13:42:42;15.90;99.30
20337;DHT22;10326;53.660;10.200;2024-02-15T13:45:15;15.90;99.30
20337;DHT22;10326;53.660;10.200;2024-02-15T13:47:44;15.90;99.30
20337;DHT22;10326;53.660;10.200;2024-02-15T13:50:13;15.90;99.30
20337;DHT22;10326;53.660;10.200;2024-02-15T13:52:41;15.90;99.30
20337;DHT22;10326;53.660;10.200;2024-02-15T13:55:12;15.90;99.30
20337;DHT22;10326;53.660;10.200;2024-02-15T13:57:40;15.90;99.30
20337;DHT22;10326;53.660;10.200;2024-02-15T14:00:09;15.80;99.30
20337;DHT22;10326;53.660;10.200;2024-02-15T14:02:47;15.80;99.30
20337;DHT22;10326;53.660;10.200;2024-02-15T14:05:15;15.80;99.30
20337;DHT22;10326;53.660;10.200;2024-02-15T14:07:49;15.80;99.30
20337;DHT22;10326;53.660;10.200;2024-02-15T14:10:19;15.80;99.20
20337;DHT22;10326;53.660;10.200;2024-02-15T14:12:46;15.80;99.30
20337;DHT22;10326;53.660;10.200;2024-02-15T14:15:14;15.80;99.20
20337;DHT22;10326;53.660;10.200;2024-02-15T14:17:42;15.80;99.30
20337;DHT22;10326;53.660;10.200;2024-02-15T14:20:11;15.80;99.50
20337;DHT22;10326;53.660;10.200;2024-02-15T14:22:39;15.70;99.30
20337;DHT22;10326;53.660;10.200;2024-02-15T14:25:08;15.70;99.30
20337;DHT22;10326;53.660;10.200;2024-02-15T14:27:37;15.70;99.30
20337;DHT22;10326;53.660;10.200;2024-02-15T14:30:05;15.70;99.30
20337;DHT22;10326;53.660;10.200;2024-02-15T14:32:50;15.70;99.30
20337;DHT22;10326;53.660;10.200;2024-02-15T14:35:30;15.70;99.30
20337;DHT22;10326;53.660;10.200;2024-02-15T14:38:00;15.70;99.30
20337;DHT22;10326;53.660;10.200;2024-02-15T14:40:32;15.70;99.40
20337;DHT22;10326;53.660;10.200;2024-02-15T14:43:01;15.70;99.40
20337;DHT22;10326;53.660;10.200;2024-02-15T14:45:30;15.70;99.40
20337;DHT22;10326;53.660;10.200;2024-02-15T14:47:58;15.70;99.40
20337;DHT22;10326;53.660;10.200;2024-02-15T14:50:25;15.70;99.40
20337;DHT22;10326;53.660;10.200;2024-02-15T14:52:53;15.70;99.40
20337;DHT22;10326;53.660;10.200;2024-02-15T14:55:20;15.70;99.40
20337;DHT22;10326;53.660;10.200;2024-02-15T14:57:48;15.70;99.40
20337;DHT22;10326;53.660;10.200;2024-02-15T15:00:17;15.70;99.40
20337;DHT22;10326;53.660;10.200;2024-02-15T15:02:47;15.80;99.40
20337;DHT22;10326;53.660;10.200;2024-02-15T15:05:16;15.80;99.40
20337;DHT22;10326;53.660;10.200;2024-02-15T15:08:01;15.80;99.40
20337;DHT22;10326;53.660;10.200;2024-02-15T15:10:46;15.80;99.40
20337;DHT22;10326;53.660;10.200;2024-02-15T15:13:31;15.80;99.40
20337;DHT22;10326;53.660;10.200;2024-02-15T15:16:00;15.80;99.40
20337;DHT22;10326;53.660;10.200;2024-02-15T15:18:28;15.80;99.40
20337;DHT22;10326;53.660;10.200;2024-02-15T15:20:57;15.80;99.40
20337;DHT22;10326;53.660;10.200;2024-02-15T15:23:24;15.80;99.40
20337;DHT22;10326;53.660;10.200;2024-02-15T15:25:51;15.80;99.40
20337;DHT22;10326;53.660;10.200;2024-02-15T15:28:18;15.80;99.40
20337;DHT22;10326;53.660;10.200;2024-02-15T15:30:46;15.80;99.40
20337;DHT22;10326;53.660;10.200;2024-02-15T15:33:18;15.80;99.30
20337;DHT22;10326;53.660;10.200;2024-02-15T15:35:45;15.80;99.30
20337;DHT22;10326;53.660;10.200;2024-02-15T15:38:13;15.90;99.30
20337;DHT22;10326;53.660;10.200;2024-02-15T15:40:40;15.90;99.50
20337;DHT22;10326;53.660;10.200;2024-02-15T15:43:08;15.90;99.30
20337;DHT22;10326;53.660;10.200;2024-02-15T15:45:36;15.90;99.30
20337;DHT22;10326;53.660;10.200;2024-02-15T15:48:04;15.90;99.20
20337;DHT22;10326;53.660;10.200;2024-02-15T15:50:33;15.80;99.20
20337;DHT22;10326;53.660;10.200;2024-02-15T15:53:01;15.90;99.20
20337;DHT22;10326;53.660;10.200;2024-02-15T15:55:28;15.80;99.20
20337;DHT22;10326;53.660;10.200;2024-02-15T15:57:56;15.80;99.20
20337;DHT22;10326;53.660;10.200;2024-02-15T16:00:24;15.80;99.20
20337;DHT22;10326;53.660;10.200;2024-02-15T16:02:51;15.80;99.20
20337;DHT22;10326;53.660;10.200;2024-02-15T16:05:21;15.80;99.20
20337;DHT22;10326;53.660;10.200;2024-02-15T16:07:50;15.80;99.20
20337;DHT22;10326;53.660;10.200;2024-02-15T16:10:18;15.80;99.20
20337;DHT22;10326;53.660;10.200;2024-02-15T16:12:50;15.80;99.50
20337;DHT22;10326;53.660;10.200;2024-02-15T16:15:18;15.90;99.30
20337;DHT22;10326;53.660;10.200;2024-02-15T16:17:46;15.80;99.20
20337;DHT22;10326;53.660;10.200;2024-02-15T16:20:13;15.80;99.20
20337;DHT22;10326;53.660;10.200;2024-02-15T16:22:41;15.80;99.20
20337;DHT22;10326;53.660;10.200;2024-02-15T16:25:10;15.80;99.20
20337;DHT22;10326;53.660;10.200;2024-02-15T16:27:38;15.80;99.20
20337;DHT22;10326;53.660;10.200;2024-02-15T16:30:07;15.80;99.20
20337;DHT22;10326;53.660;10.200;2024-02-15T16:32:36;15.80;99.20
20337;DHT22;10326;53.660;10.200;2024-02-15T16:35:04;15.80;99.20
20337;DHT22;10326;53.660;10.200;2024-02-15T16:37:36;15.80;99.20
20337;DHT22;10326;53.660;10.200;2024-02-15T16:40:05;15.70;99.10
20337;DHT22;10326;53.660;10.200;2024-02-15T16:42:35;15.80;99.20
20337;DHT22;10326;53.660;10.200;2024-02-15T16:45:04;15.80;99.20
20337;DHT22;10326;53.660;10.200;2024-02-15T16:47:33;15.80;99.20
20337;DHT22;10326;53.660;10.200;2024-02-15T16:50:01;15.70;99.20
20337;DHT22;10326;53.660;10.200;2024-02-15T16:52:30;15.80;99.20
20337;DHT22;10326;53.660;10.200;2024-02-15T16:54:57;15.70;99.20
20337;DHT22;10326;53.660;10.200;2024-02-15T16:57:25;15.70;99.20
20337;DHT22;10326;53.660;10.200;2024-02-15T16:59:54;15.70;99.20
20337;DHT22;10326;53.660;10.200;2024-02-15T17:02:21;15.80;99.20
20337;DHT22;10326;53.660;10.200;2024-02-15T17:04:48;15.80;99.40
20337;DHT22;10326;53.660;10.200;2024-02-15T17:07:15;15.80;99.20
20337;DHT22;10326;53.660;10.200;2024-02-15T17:09:42;15.80;99.20
20337;DHT22;10326;53.660;10.200;2024-02-15T17:12:09;15.80;99.20
20337;DHT22;10326;53.660;10.200;2024-02-15T17:14:36;15.80;99.20
20337;DHT22;10326;53.660;10.200;2024-02-15T17:17:06;15.80;99.10
20337;DHT22;10326;53.660;10.200;2024-02-15T17:19:34;15.80;99.10
20337;DHT22;10326;53.660;10.200;2024-02-15T17:22:01;15.80;99.10
20337;DHT22;10326;53.660;10.200;2024-02-15T17:24:29;15.80;99.10
20337;DHT22;10326;53.660;10.200;2024-02-15T17:26:58;15.80;99.10
20337;DHT22;10326;53.660;10.200;2024-02-15T17:29:25;15.80;99.10
20337;DHT22;10326;53.660;10.200;2024-02-15T17:31:52;15.80;99.10
20337;DHT22;10326;53.660;10.200;2024-02-15T17:34:23;15.80;99.10
20337;DHT22;10326;53.660;10.200;2024-02-15T17:36:52;15.80;99.10
20337;DHT22;10326;53.660;10.200;2024-02-15T17:39:19;15.80;99.00
20337;DHT22;10326;53.660;10.200;2024-02-15T17:41:46;15.80;99.00
20337;DHT22;10326;53.660;10.200;2024-02-15T17:44:13;15.80;99.10
20337;DHT22;10326;53.660;10.200;2024-02-15T17:46:40;15.80;99.10
20337;DHT22;10326;53.660;10.200;2024-02-15T17:49:07;15.80;99.10
20337;DHT22;10326;53.660;10.200;2024-02-15T17:51:36;15.80;99.00
20337;DHT22;10326;53.660;10.200;2024-02-15T17:54:07;15.80;99.10
20337;DHT22;10326;53.660;10.200;2024-02-15T17:56:34;15.80;99.00
20337;DHT22;10326;53.660;10.200;2024-02-15T17:59:01;15.70;99.00
20337;DHT22;10326;53.660;10.200;2024-02-15T18:01:28;15.70;99.00
20337;DHT22;10326;53.660;10.200;2024-02-15T18:03:57;15.70;99.00
20337;DHT22;10326;53.660;10.200;2024-02-15T18:06:24;15.70;99.00
20337;DHT22;10326;53.660;10.200;2024-02-15T18:08:54;15.70;99.00
20337;DHT22;10326;53.660;10.200;2024-02-15T18:11:21;15.70;99.00
20337;DHT22;10326;53.660;10.200;2024-02-15T18:13:49;15.70;99.00
20337;DHT22;10326;53.660;10.200;2024-02-15T18:16:16;15.70;99.00
20337;DHT22;10326;53.660;10.200;2024-02-15T18:18:45;15.70;99.00
20337;DHT22;10326;53.660;10.200;2024-02-15T18:21:13;15.70;99.00
20337;DHT22;10326;53.660;10.200;2024-02-15T18:23:40;15.70;99.00
20337;DHT22;10326;53.660;10.200;2024-02-15T18:26:09;15.70;99.00
20337;DHT22;10326;53.660;10.200;2024-02-15T18:28:36;15.70;99.00
20337;DHT22;10326;53.660;10.200;2024-02-15T18:31:03;15.70;99.00
20337;DHT22;10326;53.660;10.200;2024-02-15T18:33:33;15.70;99.00
20337;DHT22;10326;53.660;10.200;2024-02-15T18:36:05;15.70;99.00
20337;DHT22;10326;53.660;10.200;2024-02-15T18:38:33;15.70;99.00
20337;DHT22;10326;53.660;10.200;2024-02-15T18:41:00;15.70;98.90
20337;DHT22;10326;53.660;10.200;2024-02-15T18:43:33;15.70;98.90
20337;DHT22;10326;53.660;10.200;2024-02-15T18:46:01;15.70;99.00
20337;DHT22;10326;53.660;10.200;2024-02-15T18:48:30;15.70;98.90
20337;DHT22;10326;53.660;10.200;2024-02-15T18:50:58;15.70;98.90
20337;DHT22;10326;53.660;10.200;2024-02-15T18:53:25;15.70;98.90
20337;DHT22;10326;53.660;10.200;2024-02-15T18:55:52;15.70;98.90
20337;DHT22;10326;53.660;10.200;2024-02-15T18:58:21;15.70;98.90
20337;DHT22;10326;53.660;10.200;2024-02-15T19:00:52;15.70;98.90
20337;DHT22;10326;53.660;10.200;2024-02-15T19:03:19;15.70;99.00
20337;DHT22;10326;53.660;10.200;2024-02-15T19:05:47;15.70;98.90
20337;DHT22;10326;53.660;10.200;2024-02-15T19:08:14;15.70;98.90
20337;DHT22;10326;53.660;10.200;2024-02-15T19:10:42;15.70;98.90
20337;DHT22;10326;53.660;10.200;2024-02-15T19:13:10;15.70;98.90
20337;DHT22;10326;53.660;10.200;2024-02-15T19:15:38;15.70;98.90
20337;DHT22;10326;53.660;10.200;2024-02-15T19:18:06;15.70;98.90
20337;DHT22;10326;53.660;10.200;2024-02-15T19:20:34;15.70;98.90
20337;DHT22;10326;53.660;10.200;2024-02-15T19:23:01;15.70;99.00
20337;DHT22;10326;53.660;10.200;2024-02-15T19:25:31;15.70;98.90
20337;DHT22;10326;53.660;10.200;2024-02-15T19:27:58;15.70;98.90
20337;DHT22;10326;53.660;10.200;2024-02-15T19:30:30;15.70;98.90
20337;DHT22;10326;53.660;10.200;2024-02-15T19:32:58;15.70;98.90
20337;DHT22;10326;53.660;10.200;2024-02-15T19:35:26;15.70;98.90
20337;DHT22;10326;53.660;10.200;2024-02-15T19:37:56;15.70;98.90
20337;DHT22;10326;53.660;10.200;2024-02-15T19:40:23;15.70;98.90
20337;DHT22;10326;53.660;10.200;2024-02-15T19:42:50;15.60;98.80
20337;DHT22;10326;53.660;10.200;2024-02-15T19:45:17;15.70;98.90
20337;DHT22;10326;53.660;10.200;2024-02-15T19:47:46;15.60;98.90
20337;DHT22;10326;53.660;10.200;2024-02-15T19:50:13;15.60;98.90
20337;DHT22;10326;53.660;10.200;2024-02-15T19:52:44;15.60;98.90
20337;DHT22;10326;53.660;10.200;2024-02-15T19:55:38;15.60;98.90
20337;DHT22;10326;53.660;10.200;2024-02-15T19:58:06;15.60;98.80
20337;DHT22;10326;53.660;10.200;2024-02-15T20:00:33;15.60;98.80
20337;DHT22;10326;53.660;10.200;2024-02-15T20:03:01;15.60;98.80
20337;DHT22;10326;53.660;10.200;2024-02-15T20:05:30;15.60;98.80
20337;DHT22;10326;53.660;10.200;2024-02-15T20:07:58;15.60;98.80
20337;DHT22;10326;53.660;10.200;2024-02-15T20:10:26;15.60;98.80
20337;DHT22;10326;53.660;10.200;2024-02-15T20:12:53;15.60;98.80
20337;DHT22;10326;53.660;10.200;2024-02-15T20:15:20;15.60;98.80
20337;DHT22;10326;53.660;10.200;2024-02-15T20:17:47;15.60;98.80
20337;DHT22;10326;53.660;10.200;2024-02-15T20:20:14;15.60;98.80
20337;DHT22;10326;53.660;10.200;2024-02-15T20:22:43;15.60;98.90
20337;DHT22;10326;53.660;10.200;2024-02-15T20:25:13;15.60;98.80
20337;DHT22;10326;53.660;10.200;2024-02-15T20:27:40;15.50;98.70
20337;DHT22;10326;53.660;10.200;2024-02-15T20:30:08;15.50;98.70
20337;DHT22;10326;53.660;10.200;2024-02-15T20:32:37;15.50;98.70
20337;DHT22;10326;53.660;10.200;2024-02-15T20:35:05;15.50;98.70
20337;DHT22;10326;53.660;10.200;2024-02-15T20:37:32;15.50;98.70
20337;DHT22;10326;53.660;10.200;2024-02-15T20:40:00;15.50;98.80
20337;DHT22;10326;53.660;10.200;2024-02-15T20:42:28;15.50;98.80
20337;DHT22;10326;53.660;10.200;2024-02-15T20:44:56;15.50;98.80
20337;DHT22;10326;53.660;10.200;2024-02-15T20:47:24;15.50;98.80
20337;DHT22;10326;53.660;10.200;2024-02-15T20:49:54;15.50;98.80
20337;DHT22;10326;53.660;10.200;2024-02-15T20:52:24;15.50;98.80
20337;DHT22;10326;53.660;10.200;2024-02-15T20:54:52;15.50;98.80
20337;DHT22;10326;53.660;10.200;2024-02-15T20:57:20;15.50;98.80
20337;DHT22;10326;53.660;10.200;2024-02-15T20:59:48;15.50;98.80
20337;DHT22;10326;53.660;10.200;2024-02-15T21:02:17;15.50;98.80
20337;DHT22;10326;53.660;10.200;2024-02-15T21:04:45;15.50;98.80
20337;DHT22;10326;53.660;10.200;2024-02-15T21:07:13;15.50;98.80
20337;DHT22;10326;53.660;10.200;2024-02-15T21:09:40;15.50;98.80
20337;DHT22;10326;53.660;10.200;2024-02-15T21:12:07;15.50;98.80
20337;DHT22;10326;53.660;10.200;2024-02-15T21:14:34;15.50;98.80
20337;DHT22;10326;53.660;10.200;2024-02-15T21:17:03;15.50;98.80
20337;DHT22;10326;53.660;10.200;2024-02-15T21:19:32;15.50;98.70
20337;DHT22;10326;53.660;10.200;2024-02-15T21:22:03;15.50;98.70
20337;DHT22;10326;53.660;10.200;2024-02-15T21:24:30;15.50;98.70
20337;DHT22;10326;53.660;10.200;2024-02-15T21:26:57;15.50;98.70
20337;DHT22;10326;53.660;10.200;2024-02-15T21:29:26;15.50;98.70
20337;DHT22;10326;53.660;10.200;2024-02-15T21:31:53;15.50;98.70
20337;DHT22;10326;53.660;10.200;2024-02-15T21:34:22;15.50;98.80
20337;DHT22;10326;53.660;10.200;2024-02-15T21:36:50;15.50;98.70
20337;DHT22;10326;53.660;10.200;2024-02-15T21:39:17;15.50;98.70
20337;DHT22;10326;53.660;10.200;2024-02-15T21:41:48;15.50;98.70
20337;DHT22;10326;53.660;10.200;2024-02-15T21:44:15;15.50;98.70
20337;DHT22;10326;53.660;10.200;2024-02-15T21:46:42;15.50;98.70
20337;DHT22;10326;53.660;10.200;2024-02-15T21:49:10;15.50;98.70
20337;DHT22;10326;53.660;10.200;2024-02-15T21:51:39;15.50;98.70
20337;DHT22;10326;53.660;10.200;2024-02-15T21:54:07;15.50;98.70
20337;DHT22;10326;53.660;10.200;2024-02-15T21:56:34;15.50;98.70
20337;DHT22;10326;53.660;10.200;2024-02-15T21:59:02;15.50;98.70
20337;DHT22;10326;53.660;10.200;2024-02-15T22:01:30;15.50;98.70
20337;DHT22;10326;53.660;10.200;2024-02-15T22:03:57;15.50;98.70
20337;DHT22;10326;53.660;10.200;2024-02-15T22:06:24;15.50;98.70
20337;DHT22;10326;53.660;10.200;2024-02-15T22:08:52;15.50;98.60
20337;DHT22;10326;53.660;10.200;2024-02-15T22:11:20;15.50;98.60
20337;DHT22;10326;53.660;10.200;2024-02-15T22:13:48;15.40;98.60
20337;DHT22;10326;53.660;10.200;2024-02-15T22:16:15;15.40;98.60
20337;DHT22;10326;53.660;10.200;2024-02-15T22:18:42;15.50;98.60
20337;DHT22;10326;53.660;10.200;2024-02-15T22:21:10;15.40;98.60
20337;DHT22;10326;53.660;10.200;2024-02-15T22:23:37;15.40;98.60
20337;DHT22;10326;53.660;10.200;2024-02-15T22:26:14;15.40;98.60
20337;DHT22;10326;53.660;10.200;2024-02-15T22:28:41;15.40;98.60
20337;DHT22;10326;53.660;10.200;2024-02-15T22:31:15;15.40;98.60
20337;DHT22;10326;53.660;10.200;2024-02-15T22:33:42;15.40;98.60
20337;DHT22;10326;53.660;10.200;2024-02-15T22:36:18;15.40;98.60
20337;DHT22;10326;53.660;10.200;2024-02-15T22:38:46;15.40;98.60
20337;DHT22;10326;53.660;10.200;2024-02-15T22:41:15;15.40;98.60
20337;DHT22;10326;53.660;10.200;2024-02-15T22:43:42;15.40;98.60
20337;DHT22;10326;53.660;10.200;2024-02-15T22:46:10;15.40;98.60
20337;DHT22;10326;53.660;10.200;2024-02-15T22:48:38;15.40;98.60
20337;DHT22;10326;53.660;10.200;2024-02-15T22:51:05;15.40;98.60
20337;DHT22;10326;53.660;10.200;2024-02-15T22:53:35;15.40;98.60
20337;DHT22;10326;53.660;10.200;2024-02-15T22:56:04;15.40;98.60
20337;DHT22;10326;53.660;10.200;2024-02-15T22:58:36;15.40;98.60
20337;DHT22;10326;53.660;10.200;2024-02-15T23:01:05;15.40;98.60
20337;DHT22;10326;53.660;10.200;2024-02-15T23:03:32;15.40;98.60
20337;DHT22;10326;53.660;10.200;2024-02-15T23:05:59;15.40;98.60
20337;DHT22;10326;53.660;10.200;2024-02-15T23:08:27;15.40;98.60
20337;DHT22;10326;53.660;10.200;2024-02-15T23:10:54;15.40;98.50
20337;DHT22;10326;53.660;10.200;2024-02-15T23:13:21;15.40;98.50
20337;DHT22;10326;53.660;10.200;2024-02-15T23:15:50;15.40;98.50
20337;DHT22;10326;53.660;10.200;2024-02-15T23:18:18;15.40;98.50
20337;DHT22;10326;53.660;10.200;2024-02-15T23:20:45;15.40;98.50
20337;DHT22;10326;53.660;10.200;2024-02-15T23:23:13;15.40;98.50
20337;DHT22;10326;53.660;10.200;2024-02-15T23:25:42;15.40;98.50
20337;DHT22;10326;53.660;10.200;2024-02-15T23:28:10;15.40;98.50
20337;DHT22;10326;53.660;10.200;2024-02-15T23:30:38;15.40;98.40
20337;DHT22;10326;53.660;10.200;2024-02-15T23:33:07;15.30;98.40
20337;DHT22;10326;53.660;10.200;2024-02-15T23:35:35;15.30;98.30
20337;DHT22;10326;53.660;10.200;2024-02-15T23:38:13;15.30;98.30
20337;DHT22;10326;53.660;10.200;2024-02-15T23:40:58;15.30;98.30
20337;DHT22;10326;53.660;10.200;2024-02-15T23:43:26;15.30;98.30
20337;DHT22;10326;53.660;10.200;2024-02-15T23:45:53;15.30;98.30
20337;DHT22;10326;53.660;10.200;2024-02-15T23:48:22;15.30;98.20
20337;DHT22;10326;53.660;10.200;2024-02-15T23:50:49;15.20;98.20
20337;DHT22;10326;53.660;10.200;2024-02-15T23:53:16;15.20;98.20
20337;DHT22;10326;53.660;10.200;2024-02-15T23:55:43;15.20;98.20
20337;DHT22;10326;53.660;10.200;2024-02-15T23:58:10;15.20;98.20
